Flight Track Log - Related Links

Times and Time Zones

All times are in EDT time to prevent confusion due to time zone crossing. See the UAL5900 flight status page for this flight to view local times or setup timezone preferences in your user account.

Time Position Orientation Groundspeed Altitude Reporting Facility
EDT Latitude Longitude Course Direction KTS MPH feet Rate Location/Type
Thu 12:32:55 PM 43.1064 -76.1650 264° West 148 170 2,000  Level Boston Center
Thu 12:33:53 PM 43.1044 -76.2333 268° West 181 208 3,900 1,800 Climbing Boston Center
Thu 12:34:55 PM 43.1022 -76.3161 268° West 206 237 5,600 1,984 Climbing Boston Center
Thu 12:35:00 PM 43.0886 -76.6022 281° West  Level Estimated
Thu 12:35:57 PM 43.1008 -76.4097 269° West 238 274 8,000  Level Boston Center
Thu 12:36:00 PM 43.2296 -76.6766 286° West  Level FlightAware Approximate
Thu 12:36:59 PM 43.1014 -76.5056 270° West 248 285 10,000  Level Boston Center
Thu 12:37:00 PM 43.2552 -76.7961 286° West  Level FlightAware Approximate
Thu 12:38:01 PM 43.1053 -76.6247 273° West 259 298 12,000  Level Boston Center
Thu 12:39:03 PM 43.1089 -76.7397 273° West 294 338 12,600 581 Climbing Boston Center
Thu 12:40:05 PM 43.1114 -76.8628 272° West 324 373 13,200 623 Climbing Boston Center
Thu 12:40:49 PM 43.1133 -76.9408 272° West 338 389 13,700 962 Climbing Cleveland Center
Thu 12:41:51 PM 43.1181 -77.1019 272° West 351 404 14,900 1,016 Climbing Cleveland Center
Thu 12:42:53 PM 43.1211 -77.2353 272° West 352 405 15,800 919 Climbing Cleveland Center
Thu 12:43:55 PM 43.1242 -77.3711 272° West 356 410 16,800 919 Climbing Cleveland Center
Thu 12:44:57 PM 43.1278 -77.5069 272° West 356 410 17,700 864 Climbing Cleveland Center
Thu 12:46:00 PM 43.1306 -77.6403 272° West 356 410 18,600 1,008 Climbing Cleveland Center
Thu 12:47:02 PM 43.1333 -77.8019 271° West 356 410 19,800 1,065 Climbing Cleveland Center
Thu 12:48:04 PM 43.1356 -77.9389 271° West 359 413 20,800 919 Climbing Cleveland Center
Thu 12:49:06 PM 43.1381 -78.0747 271° West 360 414 21,700 919 Climbing Cleveland Center
Thu 12:50:08 PM 43.1397 -78.2119 271° West 362 417 22,700 968 Climbing Cleveland Center
Thu 12:51:10 PM 43.1428 -78.3494 272° West 363 418 23,700 1,008 Climbing Cleveland Center
Thu 12:52:13 PM 43.1381 -78.5139 268° West 362 417 24,800 1,008 Climbing Cleveland Center
Thu 12:53:15 PM 43.1336 -78.6536 268° West 368 423 25,800 968 Climbing Cleveland Center
Thu 12:54:17 PM 43.1294 -78.7906 268° West 365 420 26,800 1,000 Climbing Cleveland Center
Thu 12:55:09 PM 43.1167 -78.9000 261° West 360 414 27,700 1,018 Climbing Toronto Center
Thu 12:56:09 PM 43.1167 -79.0333 270° West 360 414 28,700 950 Climbing Toronto Center
Thu 12:57:09 PM 43.1167 -79.1833 270° West 360 414 29,600 950 Climbing Toronto Center
Thu 12:58:09 PM 43.1000 -79.3167 260° West 360 414 30,600 950 Climbing Toronto Center
Thu 12:59:09 PM 43.1000 -79.4500 270° West 370 426 31,500 950 Climbing Toronto Center
Thu 01:00:09 PM 43.1000 -79.5833 270° West 360 414 32,500 1,000 Climbing Toronto Center
Thu 01:01:09 PM 43.0833 -79.7167 260° West 360 414 33,500 1,000 Climbing Toronto Center
Thu 01:02:09 PM 43.0833 -79.8667 270° West 360 414 34,500 950 Climbing Toronto Center
Thu 01:03:09 PM 43.0833 -80.0000 270° West 360 414 35,400 750 Climbing Toronto Center
Thu 01:04:09 PM 43.0667 -80.1333 260° West 360 414 36,000 300 Climbing Toronto Center
Thu 01:05:09 PM 43.0667 -80.2667 270° West 370 426 36,000  Level Toronto Center
Thu 01:06:09 PM 43.0667 -80.4333 270° West 390 449 36,000  Level Toronto Center
Thu 01:07:09 PM 43.0500 -80.5667 260° West 400 460 36,000  Level Toronto Center
Thu 01:08:09 PM 43.0500 -80.7333 270° West 390 449 36,000  Level Toronto Center
Thu 01:09:09 PM 43.0333 -80.8667 260° West 380 437 36,000  Level Toronto Center
Thu 01:10:09 PM 43.0167 -81.0167 261° West 390 449 36,000  Level Toronto Center
Thu 01:11:09 PM 43.0167 -81.1667 270° West 390 449 36,000  Level Toronto Center
Thu 01:12:09 PM 43.0167 -81.3000 270° West 380 437 36,000  Level Toronto Center
Thu 01:13:09 PM 43.0167 -81.4500 270° West 380 437 36,000  Level Toronto Center
Thu 01:14:09 PM 43.0167 -81.6000 270° West 380 437 36,000  Level Toronto Center
Thu 01:15:09 PM 43.0167 -81.7500 270° West 380 437 36,000  Level Toronto Center
Thu 01:16:09 PM 43.0167 -81.8833 270° West 380 437 36,000  Level Toronto Center
Thu 01:17:09 PM 43.0000 -82.0333 261° West 380 437 36,000  Level Toronto Center
Thu 01:18:09 PM 43.0000 -82.1833 270° West 380 437 36,000  Level Toronto Center
Thu 01:19:09 PM 43.0000 -82.3167 270° West 380 437 36,000  Level Toronto Center
Thu 01:20:09 PM 43.0000 -82.4667 270° West 380 437 36,000 -450 Level Toronto Center
Thu 01:21:09 PM 43.0000 -82.6000 270° West 380 437 35,100 -950 Descending Toronto Center
Thu 01:22:09 PM 43.0333 -82.7333 289° West 360 414 34,100 -931 Descending Toronto Center
Thu 01:23:05 PM 43.0800 -82.8519 298° West 364 419 33,300 -908 Descending Cleveland Center
Thu 01:24:08 PM 43.1253 -82.9778 296° West 365 420 32,300 -624 Descending Cleveland Center
Thu 01:25:10 PM 43.1808 -83.1275 297° West 366 421 32,000 -145 Descending Cleveland Center
Thu 01:26:12 PM 43.1975 -83.2661 279° West 381 438 32,000  Level Cleveland Center
Thu 01:27:14 PM 43.1322 -83.3906 234° Southwest 408 470 32,000  Level Cleveland Center
Thu 01:28:16 PM 43.0708 -83.5225 238° Southwest 410 472 32,000  Level Cleveland Center
Thu 01:29:18 PM 43.0092 -83.6544 237° Southwest 413 475 32,000  Level Cleveland Center
Thu 01:30:21 PM 42.9594 -83.8244 248° West 405 466 32,000  Level Cleveland Center
Thu 01:31:23 PM 42.9450 -83.9697 262° West 395 455 32,000  Level Cleveland Center
Thu 01:32:25 PM 42.9308 -84.1175 263° West 394 453 32,000  Level Cleveland Center
Thu 01:33:27 PM 42.9161 -84.2669 262° West 398 458 32,000  Level Cleveland Center
Thu 01:34:29 PM 42.8986 -84.4383 262° West 401 461 32,000  Level Cleveland Center
Thu 01:35:31 PM 42.8833 -84.5928 262° West 408 470 32,000  Level Cleveland Center
Thu 01:36:34 PM 42.8678 -84.7456 262° West 408 470 32,000  Level Cleveland Center
Thu 01:37:36 PM 42.8514 -84.8986 262° West 408 470 32,000  Level Cleveland Center
Thu 01:38:38 PM 42.8361 -85.0486 262° West 404 465 32,000  Level Cleveland Center
Thu 01:39:40 PM 42.8169 -85.2283 262° West 402 463 32,000  Level Cleveland Center
Thu 01:40:42 PM 42.7997 -85.3781 261° West 402 463 32,000 -484 Level Cleveland Center
Thu 01:41:44 PM 42.7811 -85.5303 261° West 404 465 31,000 -1,632 Descending Cleveland Center
Thu 01:42:47 PM 42.7536 -85.6767 256° West 401 461 28,600 -2,208 Descending Cleveland Center
Thu 01:43:49 PM 42.7269 -85.8297 257° West 409 471 26,400 -2,226 Descending Cleveland Center
Thu 01:44:51 PM 42.6978 -85.9894 256° West 427 491 24,000 -2,129 Descending Cleveland Center
Thu 01:45:53 PM 42.6697 -86.1386 256° West 414 476 22,000 -1,935 Descending Cleveland Center
Thu 01:46:55 PM 42.6386 -86.3086 256° West 392 451 20,000 -1,087 Descending Cleveland Center
Thu 01:48:22 PM 42.6003 -86.5097 256° West 391 450 19,300 -1,168 Descending Chicago Center
Thu 01:49:24 PM 42.5742 -86.6522 256° West 391 450 17,100 -2,419 Descending Chicago Center
Thu 01:50:26 PM 42.5458 -86.7844 254° West 372 428 14,300 -2,613 Descending Chicago Center
Thu 01:51:28 PM 42.5111 -86.9117 250° West 365 420 11,700 -1,597 Descending Chicago Center
Thu 01:52:30 PM 42.4781 -87.0336 250° West 349 402 11,000 -339 Descending Chicago Center
Thu 01:53:32 PM 42.4372 -87.1742 249° West 338 389 11,000  Level Chicago Center
Thu 01:54:35 PM 42.4044 -87.2969 250° West 342 394 11,000  Level Chicago Center
Thu 01:55:37 PM 42.3744 -87.4067 250° West 344 396 11,000 -290 Level Chicago Center
Thu 01:56:39 PM 42.3281 -87.5453 246° West 341 392 10,400 -677 Descending Chicago Center
Thu 01:57:41 PM 42.2603 -87.6169 218° Southwest 285 328 9,600 -1,258 Descending Chicago Center
Thu 01:58:43 PM 42.2019 -87.6797 219° Southwest 273 314 7,800 -1,258 Descending Chicago Center
Thu 01:59:45 PM 42.1403 -87.7447 218° Southwest 261 300 7,000 -387 Descending Chicago Center
Thu 02:00:47 PM 42.0953 -87.8078 226° Southwest 240 276 7,000  Level Chicago Center
Thu 02:01:49 PM 42.0914 -87.8961 267° West 225 259 7,000 -48 Level Chicago Center
Thu 02:02:51 PM 42.0914 -87.9811 270° West 225 259 6,900 -1,056 Descending Chicago Center
Thu 02:03:54 PM 42.0911 -88.0708 270° West 225 259 4,800 -1,728 Descending Chicago Center
Thu 02:04:56 PM 42.0792 -88.1483 258° West 225 259 3,300 -871 Descending Chicago Center
Thu 02:05:58 PM 42.0311 -88.1225 158° South 192 221 3,000 -387 Descending Chicago Center
Thu 02:07:00 PM 42.0067 -88.0614 118° Southeast 186 214 2,500 -581 Descending Chicago Center
Thu 02:08:02 PM 42.0025 -88.0014 95° East 150 173 1,800 -677 Descending Chicago Center
Thu 02:09:04 PM 42.0019 -87.9517 91° East 137 158 1,100 -387 Descending Chicago Center
Thu 02:10:06 PM 42.0022 -87.9019 90° East 135 155 1,000 -97 Descending Chicago Center

Login

Don't have an account? Register now (free) for customized features, flight alerts, and more!